Brise-du-Lac, Quebec

11:33 AM EDT on April 25, 2018 (GMT -0400)
Glen Wexford | | Change Station

Elev 910 ft 45.99 °N, 74.12 °W | Updated 6 seconds ago

Overcast
Overcast
52.6 °F
Feels Like 52.6 °F
N
3.0
Wind Variable Wind from ESE
Gusts 6.0 mph

Today
High -- | Low -- °F
--% Chance of Precip.
Yesterday
High -- | Low -- °F
Precip. -- in
Pressure 30.00 in
Visibility 25.0 miles
Clouds Few 3000 ft
Scattered Clouds 5200 ft
Overcast 9800 ft
Dew Point 45 °F
Humidity 74%
Rainfall 0.00 in
Snow Depth Not available.
5:52 AM 7:56 PM
Waxing Gibbous, 79% visible
METAR CYMX 251500Z 12006KT 080V160 25SM -RA FEW030 SCT052 OVC098 14/07 A2999 RMK CF1SC3AC5 CF TR -RA INTMT SLP157
Pressure 30.00 in
Visibility 25.0 miles
Clouds Few 3000 ft
Scattered Clouds 5200 ft
Overcast 9800 ft
Dew Point 45 °F
Humidity 74%
Rainfall 0.00 in
Snow Depth Not available.
5:52 AM 7:56 PM
Waxing Gibbous, 79% visible
METAR CYMX 251500Z 12006KT 080V160 25SM -RA FEW030 SCT052 OVC098 14/07 A2999 RMK CF1SC3AC5 CF TR -RA INTMT SLP157

Get Severe Weather Alerts

Thanks for signing up!

Be on the lookout for a verification email in your inbox.

You'll start receiving the daily forecast at 6 AM.

×

10-Day Weather Forecast

Almanac

Astronomy

Apr. 25, 2018 Rise Set
Actual Time
Civil Twilight
Nautical Twilight
Astronomical Twilight
Moon
Length of Visible Light
Length of Day
Tomorrow will be .
, % of the Moon is Illuminated

Today's Extremes

Country Highs Country Lows

Community

WunderPhotos

Category 6

Welcome to Category 6. This is the collective home for Weather Underground's featured writeups by Dr. Jeff Masters (right), Bob Henson (left), Chris Burt, and other regular contributors.

Nearby

Air Quality

  Air Quality AQ Index Pollutant
Not available.

Snow Depth

Station Depth Elevation

Earthquake Activity

City Distance Mag. Time & Date
Minimum magnitude displayed is 2.5.

Coastal Water Temperatures

Place Temperature

Stations

Nearby Weather Stations

Station Location Temp. Windchill Dew Point Humidity Wind Precip. Elev Updated Type
                   

Watches & Warnings

There are currently no watches in effect.